Time;durP1;ratioP1;P1;durP2;ratioP2;P2;SDS_P1;SDS_P2;PMS_P1;PMS_P2;Temp;Humidity;BMP_temperature;BMP_pressure;BME280_temperature;BME280_humidity;BME280_pressure;Samples;Min_cycle;Max_cycle;Signal;HPM_P1;HPM_P2
2022/03/17 00:03:15;;;;;;;21.30;16.17;;;;;;;10.91;93.63;101783.38;10419555;28;20055;-74
2022/03/17 00:08:16;;;;;;;25.38;17.23;;;;;;;11.01;92.22;101779.56;10419795;28;20029;-74
2022/03/17 00:13:16;;;;;;;16.48;14.65;;;;;;;11.04;93.80;101795.50;10419635;28;20116;-75
2022/03/17 00:18:17;;;;;;;29.45;17.15;;;;;;;11.09;94.11;101793.09;10418750;28;20500;-74
2022/03/17 00:23:18;;;;;;;24.95;16.40;;;;;;;11.06;94.97;101788.03;10419678;28;20037;-74
2022/03/17 00:28:18;;;;;;;28.50;20.08;;;;;;;11.10;95.14;101792.94;10419527;28;20470;-74
2022/03/17 00:33:19;;;;;;;27.80;20.20;;;;;;;11.07;96.37;101790.59;10420242;28;20120;-74
2022/03/17 00:38:19;;;;;;;35.42;21.95;;;;;;;11.03;98.46;101799.22;10418564;28;20481;-74
2022/03/17 00:43:23;;;;;;;32.50;24.33;;;;;;;11.07;98.20;101798.72;10419749;28;20211;-74
2022/03/17 00:48:23;;;;;;;39.60;25.50;;;;;;;10.93;100.00;101800.28;10419915;28;20034;-74
2022/03/17 00:53:24;;;;;;;36.28;26.55;;;;;;;10.87;100.00;101803.72;10418655;28;20041;-74
2022/03/17 00:58:24;;;;;;;31.15;23.92;;;;;;;10.88;100.00;101808.13;10417879;28;20026;-74
2022/03/17 01:03:26;;;;;;;40.38;29.48;;;;;;;10.76;100.00;101809.53;10418232;28;20037;-74
2022/03/17 01:08:26;;;;;;;39.00;28.58;;;;;;;10.83;100.00;101818.66;10433337;28;20037;-75
2022/03/17 01:13:27;;;;;;;44.00;30.70;;;;;;;10.67;100.00;101816.84;10418882;28;20132;-77
2022/03/17 01:18:27;;;;;;;44.88;29.35;;;;;;;10.66;100.00;101830.59;10419430;28;20042;-78
2022/03/17 01:23:27;;;;;;;45.55;26.05;;;;;;;10.65;100.00;101834.28;10418633;28;20397;-78
2022/03/17 01:28:28;;;;;;;39.50;30.08;;;;;;;10.58;100.00;101839.56;10417547;28;20057;-78
2022/03/17 01:33:28;;;;;;;32.97;26.88;;;;;;;10.46;100.00;101855.38;10418219;28;20037;-79
2022/03/17 01:38:29;;;;;;;30.67;21.65;;;;;;;10.38;100.00;101871.63;10417137;28;20095;-78
2022/03/17 01:43:29;;;;;;;21.42;18.90;;;;;;;10.12;100.00;101882.63;10417846;28;20058;-78
2022/03/17 01:48:30;;;;;;;29.05;18.02;;;;;;;9.96;100.00;101901.56;10416224;28;20468;-78
2022/03/17 01:53:30;;;;;;;16.58;13.43;;;;;;;9.70;100.00;101923.34;10417080;28;20053;-78
2022/03/17 01:58:31;;;;;;;14.13;10.05;;;;;;;9.25;100.00;101933.56;10416913;28;20074;-77
2022/03/17 02:03:31;;;;;;;12.82;7.72;;;;;;;8.85;100.00;101956.66;10415940;28;20084;-77
2022/03/17 02:08:32;;;;;;;12.88;7.95;;;;;;;8.57;100.00;101953.28;10416065;28;20128;-77
2022/03/17 02:13:32;;;;;;;15.63;8.85;;;;;;;8.47;100.00;101966.03;10414789;28;20135;-77
2022/03/17 02:18:33;;;;;;;10.13;8.60;;;;;;;8.38;100.00;101969.69;10414580;28;20528;-77
2022/03/17 02:28:52;;;;;;;16.30;10.05;;;;;;;8.35;100.00;101988.84;10415490;28;20041;-76
2022/03/17 02:33:52;;;;;;;14.13;10.75;;;;;;;8.25;100.00;101999.75;10414329;28;20540;-77
2022/03/17 02:38:53;;;;;;;20.65;12.20;;;;;;;8.24;100.00;102008.84;10416191;28;20057;-77
2022/03/17 02:43:53;;;;;;;14.18;10.18;;;;;;;8.24;100.00;102018.81;10415433;28;20568;-77
2022/03/17 02:48:53;;;;;;;24.40;11.23;;;;;;;8.21;100.00;102022.66;10415937;28;20040;-77
2022/03/17 02:53:54;;;;;;;25.02;11.30;;;;;;;8.20;100.00;102038.97;10415664;28;20056;-78
2022/03/17 02:58:54;;;;;;;18.30;12.48;;;;;;;8.11;100.00;102052.41;10430896;28;20108;-77
2022/03/17 03:03:55;;;;;;;16.95;10.93;;;;;;;8.06;100.00;102065.50;10432558;28;20038;-77
2022/03/17 03:08:55;;;;;;;25.95;11.77;;;;;;;8.06;100.00;102089.78;10415365;28;20452;-78
2022/03/17 03:13:55;;;;;;;27.23;11.27;;;;;;;8.04;100.00;102099.88;10414876;28;20547;-77
2022/03/17 03:18:56;;;;;;;21.73;6.80;;;;;;;7.90;100.00;102122.78;10415069;28;20065;-78
2022/03/17 03:23:57;;;;;;;22.73;6.22;;;;;;;7.87;100.00;102130.34;10422266;28;20045;-78
2022/03/17 03:28:58;;;;;;;22.95;6.38;;;;;;;7.78;100.00;102150.09;10424100;28;20469;-77
2022/03/17 03:33:58;;;;;;;19.02;4.15;;;;;;;7.64;100.00;102163.06;10424081;28;20120;-78
2022/03/17 03:38:58;;;;;;;9.77;5.28;;;;;;;7.57;100.00;102177.31;10421987;28;20129;-78
2022/03/17 03:43:59;;;;;;;26.55;5.88;;;;;;;7.60;100.00;102188.63;10422032;28;20481;-78
2022/03/17 03:48:59;;;;;;;8.88;3.83;;;;;;;7.52;100.00;102198.44;10420119;28;20034;-78
2022/03/17 03:54:18;;;;;;;6.05;3.58;;;;;;;7.51;100.00;102216.47;10421203;28;20041;-78
2022/03/17 03:59:20;;;;;;;14.88;4.38;;;;;;;7.52;100.00;102218.16;10422079;28;20021;-77
2022/03/17 04:04:20;;;;;;;14.95;4.85;;;;;;;7.42;100.00;102239.75;10421506;28;20056;-78
2022/03/17 04:09:26;;;;;;;6.40;2.88;;;;;;;7.46;100.00;102249.22;10421499;28;20097;-77
2022/03/17 04:14:26;;;;;;;29.13;4.88;;;;;;;7.44;100.00;102263.88;10422580;28;20026;-78
2022/03/17 04:19:27;;;;;;;18.13;3.22;;;;;;;7.34;100.00;102280.03;10405817;28;20385;-78
2022/03/17 04:24:27;;;;;;;9.57;3.05;;;;;;;7.41;100.00;102299.19;10423368;28;20033;-78
2022/03/17 04:29:28;;;;;;;15.95;4.00;;;;;;;7.36;100.00;102312.22;10420979;28;20120;-78
2022/03/17 04:34:28;;;;;;;26.15;5.15;;;;;;;7.34;100.00;102322.28;10421065;28;20037;-78
2022/03/17 04:39:28;;;;;;;13.45;3.13;;;;;;;7.34;100.00;102343.84;10425211;28;20064;-77
2022/03/17 04:44:29;;;;;;;6.25;3.42;;;;;;;7.40;100.00;102356.75;10425931;28;20049;-78
2022/03/17 04:49:29;;;;;;;25.33;3.38;;;;;;;7.37;100.00;102366.00;10422200;28;20053;-78
2022/03/17 04:54:30;;;;;;;25.10;4.30;;;;;;;7.32;100.00;102395.19;10423051;28;20038;-78
2022/03/17 04:59:30;;;;;;;16.77;3.58;;;;;;;7.23;100.00;102404.97;10422370;28;20068;-77
2022/03/17 05:04:32;;;;;;;8.95;3.38;;;;;;;7.30;100.00;102428.66;10421790;28;20037;-78
2022/03/17 05:09:33;;;;;;;6.38;3.53;;;;;;;7.27;100.00;102443.25;10419763;28;20078;-77
2022/03/17 05:14:33;;;;;;;13.18;3.15;;;;;;;7.22;100.00;102453.59;10420818;28;20437;-77
2022/03/17 05:19:34;;;;;;;7.55;2.55;;;;;;;7.26;100.00;102454.19;10419078;28;20037;-77
2022/03/17 05:24:34;;;;;;;3.55;1.95;;;;;;;7.34;100.00;102471.38;10419290;28;20075;-77
2022/03/17 05:29:34;;;;;;;18.80;4.28;;;;;;;7.38;100.00;102483.56;10417904;28;20048;-76
2022/03/17 05:34:35;;;;;;;10.95;4.07;;;;;;;7.41;100.00;102498.63;10418116;28;20136;-78
2022/03/17 05:39:35;;;;;;;24.02;4.40;;;;;;;7.34;100.00;102511.81;10416534;28;20038;-77
2022/03/17 05:44:36;;;;;;;9.63;3.80;;;;;;;7.29;100.00;102522.13;10420239;28;20409;-78
2022/03/17 05:49:36;;;;;;;16.60;3.28;;;;;;;7.33;100.00;102526.25;10418299;28;20144;-78
2022/03/17 05:54:37;;;;;;;9.15;3.63;;;;;;;7.43;100.00;102540.63;10398950;28;20124;-78
2022/03/17 05:59:39;;;;;;;20.90;4.15;;;;;;;7.36;100.00;102552.06;10416617;28;20037;-77
2022/03/17 06:04:41;;;;;;;9.45;3.05;;;;;;;7.44;100.00;102565.72;10419594;28;20063;-80
2022/03/17 06:09:42;;;;;;;16.92;5.65;;;;;;;7.43;100.00;102574.78;10427007;28;20037;-78
2022/03/17 06:14:42;;;;;;;8.13;3.53;;;;;;;7.40;99.41;102577.75;10426907;28;20033;-78
2022/03/17 06:19:43;;;;;;;10.73;4.18;;;;;;;7.43;99.59;102599.94;10423782;28;20034;-79
2022/03/17 06:24:43;;;;;;;12.43;3.88;;;;;;;7.45;99.55;102607.88;10425330;28;20029;-78
2022/03/17 06:29:43;;;;;;;18.02;4.68;;;;;;;7.49;99.81;102628.16;10421046;28;20029;-78
2022/03/17 06:34:44;;;;;;;12.68;4.00;;;;;;;7.44;100.00;102633.13;10420170;28;20048;-79
2022/03/17 06:39:44;;;;;;;22.20;5.28;;;;;;;7.52;100.00;102635.97;10420029;28;20029;-78
2022/03/17 06:44:45;;;;;;;6.82;4.20;;;;;;;7.52;100.00;102651.31;10417474;28;20041;-79
2022/03/17 06:49:45;;;;;;;5.85;3.67;;;;;;;7.58;100.00;102665.09;10415097;28;20373;-79
2022/03/17 06:54:46;;;;;;;17.90;4.55;;;;;;;7.67;100.00;102685.00;10416740;28;20057;-79
2022/03/17 06:59:46;;;;;;;11.95;3.85;;;;;;;7.75;99.32;102695.97;10424283;28;20041;-79
2022/03/17 07:04:47;;;;;;;13.73;3.22;;;;;;;7.67;96.63;102688.56;10424343;28;20034;-79
2022/03/17 07:09:47;;;;;;;9.75;2.58;;;;;;;7.64;94.90;102707.69;10422919;28;20065;-79
2022/03/17 07:14:48;;;;;;;11.95;4.90;;;;;;;7.55;95.21;102713.88;10422789;28;20060;-78
2022/03/17 07:24:57;;;;;;;9.88;4.05;;;;;;;7.55;96.08;102738.16;10428782;28;20037;-78
2022/03/17 07:29:58;;;;;;;5.03;3.00;;;;;;;7.55;95.67;102743.53;10429067;28;20440;-78
2022/03/17 07:34:58;;;;;;;12.75;3.97;;;;;;;7.49;96.44;102752.16;10425685;28;20118;-79
2022/03/17 07:39:58;;;;;;;10.27;3.22;;;;;;;7.54;96.53;102771.50;10426290;28;20040;-78
2022/03/17 07:44:59;;;;;;;9.88;2.88;;;;;;;7.53;96.38;102785.09;10427027;28;20064;-78
2022/03/17 07:50:03;;;;;;;3.75;2.50;;;;;;;7.65;96.04;102790.28;10431025;28;20029;-78
2022/03/17 07:55:04;;;;;;;9.02;3.15;;;;;;;7.69;95.27;102799.84;10435409;28;20039;-78
2022/03/17 08:00:07;;;;;;;12.52;2.55;;;;;;;7.90;91.98;102809.75;10437201;28;20037;-78
2022/03/17 08:05:08;;;;;;;5.22;2.42;;;;;;;8.41;93.19;102826.94;10434414;28;20128;-78
2022/03/17 08:10:09;;;;;;;9.25;2.95;;;;;;;9.90;90.06;102831.22;10434639;28;20116;-78
2022/03/17 08:15:10;;;;;;;5.70;2.22;;;;;;;11.94;84.87;102842.69;10420691;28;20034;-78
2022/03/17 08:20:11;;;;;;;8.52;2.72;;;;;;;12.98;85.33;102850.66;10421324;28;20044;-78
2022/03/17 08:25:11;;;;;;;2.75;2.25;;;;;;;12.62;78.61;102856.31;10425647;28;20061;-78
2022/03/17 08:30:12;;;;;;;2.75;1.75;;;;;;;11.64;79.80;102861.06;10429343;28;20455;-78
2022/03/17 08:35:14;;;;;;;12.70;2.88;;;;;;;11.12;83.86;102874.47;10413659;28;20080;-78
2022/03/17 08:40:15;;;;;;;11.13;1.67;;;;;;;11.37;86.07;102903.56;10431226;28;20113;-78
2022/03/17 08:50:34;;;;;;;3.22;2.35;;;;;;;13.44;80.85;102911.00;10422646;28;20045;-78
2022/03/17 08:55:36;;;;;;;7.55;2.60;;;;;;;13.14;77.93;102917.84;10424475;28;20469;-78
2022/03/17 09:00:36;;;;;;;2.45;1.75;;;;;;;12.86;82.02;102936.28;10424332;28;20039;-78
2022/03/17 09:05:37;;;;;;;6.78;2.20;;;;;;;14.40;76.04;102937.56;10407945;28;20045;-78
2022/03/17 09:10:38;;;;;;;7.40;3.20;;;;;;;14.49;79.40;102944.72;10423699;28;20080;-78
2022/03/17 09:15:40;;;;;;;8.05;2.53;;;;;;;14.54;77.64;102950.50;10404515;28;20029;-78
2022/03/17 09:20:41;;;;;;;14.32;3.08;;;;;;;14.64;77.32;102959.38;10421814;28;20029;-78
2022/03/17 09:25:41;;;;;;;6.93;2.58;;;;;;;13.64;79.63;102972.28;10423506;28;20492;-78
2022/03/17 09:30:42;;;;;;;3.17;2.53;;;;;;;13.23;79.62;102998.50;10421776;28;20037;-78
2022/03/17 09:35:42;;;;;;;5.22;2.05;;;;;;;15.49;79.12;103010.53;10417367;28;20045;-79
2022/03/17 09:40:43;;;;;;;5.70;2.13;;;;;;;14.84;81.26;103021.72;10420350;28;20049;-78
2022/03/17 09:45:45;;;;;;;9.07;2.63;;;;;;;13.91;79.79;103031.06;10423553;28;20126;-78
2022/03/17 09:50:46;;;;;;;6.75;2.75;;;;;;;13.14;81.01;103043.84;10420280;28;20072;-78
2022/03/17 09:55:46;;;;;;;6.97;2.67;;;;;;;13.30;79.26;103042.25;10419761;28;20103;-78
2022/03/17 10:00:49;;;;;;;4.75;3.22;;;;;;;13.23;78.98;103042.88;10419619;28;20034;-78
2022/03/17 10:05:50;;;;;;;12.48;2.80;;;;;;;14.45;74.07;103046.91;10417073;28;20038;-78
2022/03/17 10:10:52;;;;;;;2.78;2.55;;;;;;;14.37;72.25;103066.03;10418166;28;20449;-78
2022/03/17 10:16:05;;;;;;;8.10;3.03;;;;;;;15.73;75.84;103077.00;10419503;28;20029;-78
2022/03/17 10:21:10;;;;;;;4.20;3.00;;;;;;;14.84;67.94;103090.75;10417348;28;20446;-78
2022/03/17 10:26:11;;;;;;;3.10;2.35;;;;;;;15.08;70.56;103100.75;10415704;28;20087;-77
2022/03/17 10:31:11;;;;;;;17.42;3.92;;;;;;;15.85;66.64;103113.81;10403051;28;20543;-78
2022/03/17 10:36:16;;;;;;;10.43;3.08;;;;;;;16.37;66.46;103121.38;10423038;28;20103;-78
2022/03/17 10:41:16;;;;;;;4.60;2.63;;;;;;;15.29;67.55;103126.66;10424758;28;20469;-77
2022/03/17 10:46:20;;;;;;;15.45;3.28;;;;;;;15.21;67.50;103138.41;10422844;28;20124;-77
2022/03/17 10:51:41;;;;;;;2.22;2.00;;;;;;;14.29;71.34;103158.66;10423009;28;20384;-78
2022/03/17 10:56:41;;;;;;;3.53;2.92;;;;;;;15.56;67.36;103156.25;10422381;28;20095;-78
2022/03/17 11:01:43;;;;;;;13.50;2.83;;;;;;;14.75;69.49;103154.50;10422484;28;20075;-77
2022/03/17 11:06:44;;;;;;;5.60;3.28;;;;;;;15.53;74.20;103156.59;10423467;28;20057;-78
2022/03/17 11:11:44;;;;;;;3.90;2.63;;;;;;;17.08;65.14;103156.75;10422765;28;20033;-77
2022/03/17 11:16:47;;;;;;;4.32;3.05;;;;;;;17.98;65.24;103148.34;10421836;28;20048;-78
2022/03/17 11:21:49;;;;;;;5.90;3.30;;;;;;;18.29;67.12;103169.19;10388115;28;20025;-78
2022/03/17 11:26:50;;;;;;;9.02;2.35;;;;;;;18.59;63.28;103164.44;10422091;28;20120;-78
2022/03/17 11:31:51;;;;;;;18.08;2.78;;;;;;;18.73;63.13;103158.06;10420905;28;20069;-78
2022/03/17 11:37:26;;;;;;;3.25;2.45;;;;;;;17.18;67.29;103185.53;10422473;28;20453;-78
2022/03/17 11:42:33;;;;;;;4.60;2.72;;;;;;;17.29;69.54;103180.63;10438127;28;20060;-78
2022/03/17 11:47:36;;;;;;;3.85;2.47;;;;;;;18.02;66.06;103184.44;10421651;28;20539;-78
2022/03/17 11:52:37;;;;;;;2.55;2.35;;;;;;;17.90;60.84;103184.13;10419851;28;20035;-77
2022/03/17 11:57:37;;;;;;;2.05;1.90;;;;;;;17.82;56.88;103190.53;10419116;28;20037;-78
2022/03/17 12:02:37;;;;;;;2.90;1.95;;;;;;;17.95;63.04;103198.06;10420526;28;20077;-78
2022/03/17 12:07:47;;;;;;;3.80;2.97;;;;;;;18.02;57.84;103203.66;10425436;28;20045;-77
2022/03/17 12:12:47;;;;;;;3.92;1.77;;;;;;;17.66;61.48;103205.25;10436566;28;20061;-77
2022/03/17 12:18:14;;;;;;;7.32;3.00;;;;;;;17.87;65.44;103210.00;10435268;28;20080;-77
2022/03/17 12:23:44;;;;;;;5.80;2.63;;;;;;;18.20;66.29;103204.09;10420358;28;20042;-78
2022/03/17 12:28:44;;;;;;;3.33;1.83;;;;;;;18.00;60.18;103205.75;10417937;28;20033;-77
2022/03/17 12:33:45;;;;;;;5.85;2.78;;;;;;;18.29;64.25;103213.06;10417718;28;20434;-78
2022/03/17 12:38:48;;;;;;;8.80;2.80;;;;;;;18.61;65.69;103205.41;10418281;28;20029;-78
2022/03/17 12:43:49;;;;;;;3.83;2.08;;;;;;;18.49;62.53;103205.06;10418053;28;20540;-78
2022/03/17 12:48:50;;;;;;;5.40;1.95;;;;;;;18.45;63.08;103209.25;10402455;28;20083;-78
2022/03/17 12:53:50;;;;;;;5.13;1.77;;;;;;;18.07;59.09;103215.75;10416115;28;20036;-78
2022/03/17 12:58:50;;;;;;;6.50;1.40;;;;;;;18.21;62.55;103215.91;10419364;28;20033;-78
2022/03/17 13:03:51;;;;;;;4.03;1.42;;;;;;;18.24;61.98;103223.75;10419393;28;20065;-78
2022/03/17 13:08:51;;;;;;;3.90;2.00;;;;;;;18.39;66.59;103227.31;10417005;28;20025;-78
2022/03/17 13:19:10;;;;;;;1.75;1.10;;;;;;;18.01;65.63;103230.22;10418090;28;20037;-78
2022/03/17 13:24:20;;;;;;;2.88;2.50;;;;;;;18.20;68.46;103223.28;10425003;28;20057;-78
2022/03/17 13:29:20;;;;;;;2.47;1.10;;;;;;;18.18;68.21;103235.50;10422047;28;20033;-79
2022/03/17 13:34:33;;;;;;;4.82;1.52;;;;;;;17.93;64.20;103233.03;10421482;28;20041;-78
2022/03/17 13:39:34;;;;;;;2.83;1.95;;;;;;;17.88;66.44;103243.75;10424004;28;20075;-78
2022/03/17 13:45:01;;;;;;;2.60;1.55;;;;;;;17.70;65.32;103244.06;10401908;28;20456;-78
2022/03/17 13:50:15;;;;;;;2.70;1.67;;;;;;;17.41;67.58;103244.88;10417201;28;20553;-78
2022/03/17 13:55:16;;;;;;;2.28;1.48;;;;;;;17.37;66.77;103246.31;10418355;28;20053;-78
2022/03/17 14:00:22;;;;;;;1.63;1.52;;;;;;;17.51;68.20;103256.44;10418414;28;20025;-78
2022/03/17 14:05:24;;;;;;;1.83;1.17;;;;;;;17.17;67.95;103254.19;10417269;28;20040;-78
2022/03/17 14:10:25;;;;;;;7.20;2.55;;;;;;;17.10;69.19;103264.16;10418734;28;20106;-78
2022/03/17 14:15:26;;;;;;;8.98;1.40;;;;;;;16.76;65.92;103268.19;10418222;28;20037;-78
2022/03/17 14:20:26;;;;;;;6.80;2.65;;;;;;;16.76;69.51;103276.38;10418968;28;20029;-78
2022/03/17 14:25:27;;;;;;;9.77;2.67;;;;;;;16.51;59.60;103278.38;10417129;28;20044;-78
2022/03/17 14:30:28;;;;;;;2.33;1.95;;;;;;;16.32;63.37;103281.53;10419644;28;20426;-78
2022/03/17 14:35:28;;;;;;;4.15;2.10;;;;;;;15.88;60.03;103285.59;10419627;28;20123;-78
2022/03/17 14:40:29;;;;;;;1.23;1.13;;;;;;;15.69;60.50;103292.31;10417836;28;20049;-78
2022/03/17 14:45:29;;;;;;;2.58;1.77;;;;;;;15.59;62.98;103288.88;10418106;28;20053;-78
2022/03/17 14:50:29;;;;;;;7.93;2.10;;;;;;;15.57;63.82;103300.00;10419946;28;20038;-78
2022/03/17 14:55:30;;;;;;;1.75;1.45;;;;;;;15.31;56.81;103302.03;10418149;28;20037;-77
2022/03/17 15:00:31;;;;;;;7.50;1.98;;;;;;;15.06;61.80;103310.22;10417537;28;20086;-78
2022/03/17 15:05:31;;;;;;;5.80;2.13;;;;;;;15.03;63.20;103306.97;10420507;28;20065;-78
2022/03/17 15:10:33;;;;;;;3.95;2.30;;;;;;;14.34;60.09;103328.03;10416909;28;20025;-78
2022/03/17 15:15:33;;;;;;;4.30;1.70;;;;;;;13.48;62.04;103332.41;10417816;28;20034;-78
2022/03/17 15:20:34;;;;;;;4.18;2.08;;;;;;;12.88;61.84;103336.72;10423071;28;20037;-78
2022/03/17 15:25:34;;;;;;;3.28;1.85;;;;;;;12.39;63.49;103333.41;10422718;28;20041;-77
2022/03/17 15:30:35;;;;;;;11.95;2.67;;;;;;;11.99;63.45;103337.25;10423629;28;20025;-77
2022/03/17 15:35:35;;;;;;;2.45;1.80;;;;;;;11.66;62.99;103347.59;10422754;28;20504;-78
2022/03/17 15:40:36;;;;;;;2.65;1.98;;;;;;;11.46;62.88;103354.03;10422439;28;20116;-77
2022/03/17 15:45:38;;;;;;;2.65;1.92;;;;;;;11.28;63.01;103357.44;10423649;28;20384;-78
2022/03/17 15:50:42;;;;;;;13.38;2.92;;;;;;;11.10;62.96;103362.72;10423202;28;20041;-77
2022/03/17 15:55:44;;;;;;;7.32;2.40;;;;;;;10.96;63.07;103371.25;10424172;28;20354;-77
2022/03/17 16:00:44;;;;;;;5.32;1.80;;;;;;;10.75;63.25;103368.63;10422496;28;20064;-76
2022/03/17 16:05:44;;;;;;;10.40;3.13;;;;;;;10.64;63.79;103376.88;10421270;28;20048;-76
2022/03/17 16:16:05;;;;;;;7.90;2.45;;;;;;;10.28;64.40;103389.97;10420777;28;20041;-77
2022/03/17 16:21:06;;;;;;;8.02;2.10;;;;;;;10.17;64.42;103390.03;10421084;28;20033;-77
2022/03/17 16:26:07;;;;;;;8.35;3.50;;;;;;;10.10;63.50;103395.13;10419543;28;20088;-77
2022/03/17 16:31:15;;;;;;;4.95;2.92;;;;;;;9.97;64.33;103406.16;10419280;28;20040;-77
2022/03/17 16:36:15;;;;;;;3.92;1.92;;;;;;;9.86;63.49;103411.63;10419961;28;20033;-77
2022/03/17 16:41:16;;;;;;;11.48;4.05;;;;;;;9.83;63.84;103427.25;10418584;28;20401;-77
2022/03/17 16:46:16;;;;;;;4.25;2.97;;;;;;;9.70;63.88;103430.13;10419653;28;20097;-76
2022/03/17 16:51:16;;;;;;;12.77;2.72;;;;;;;9.51;64.96;103433.56;10419513;28;20064;-76
2022/03/17 16:56:18;;;;;;;14.07;3.33;;;;;;;9.51;64.16;103449.78;10419880;28;20061;-77
2022/03/17 17:01:19;;;;;;;12.35;2.42;;;;;;;9.36;64.75;103453.78;10409049;28;20087;-76
2022/03/17 17:06:19;;;;;;;5.20;2.47;;;;;;;9.24;64.80;103456.47;10409722;28;20547;-76
2022/03/17 17:11:21;;;;;;;12.02;4.38;;;;;;;9.14;65.30;103460.94;10420329;28;20076;-77
2022/03/17 17:16:22;;;;;;;9.50;3.38;;;;;;;9.05;65.95;103459.81;10420046;28;20124;-76
2022/03/17 17:21:23;;;;;;;5.22;2.38;;;;;;;8.95;65.30;103480.47;10416999;28;20108;-77
2022/03/17 17:31:42;;;;;;;7.13;3.85;;;;;;;8.68;66.48;103490.78;10418060;28;20435;-76
2022/03/17 17:36:46;;;;;;;14.88;4.53;;;;;;;8.50;66.79;103501.22;10417190;28;20041;-76
2022/03/17 17:41:47;;;;;;;4.50;3.85;;;;;;;8.34;67.95;103507.78;10417288;28;20061;-77
2022/03/17 17:46:47;;;;;;;17.08;3.90;;;;;;;8.23;67.77;103509.56;10416916;28;20049;-76
2022/03/17 17:51:48;;;;;;;10.20;4.43;;;;;;;8.06;67.97;103533.31;10417068;28;20076;-77
2022/03/17 17:56:48;;;;;;;5.97;3.25;;;;;;;7.95;68.66;103540.53;10415601;28;20037;-76
2022/03/17 18:01:48;;;;;;;13.88;3.90;;;;;;;7.78;68.72;103548.00;10415633;28;20045;-77
2022/03/17 18:06:50;;;;;;;12.13;4.97;;;;;;;7.63;69.02;103558.13;10421008;28;20037;-77
2022/03/17 18:11:51;;;;;;;17.65;4.88;;;;;;;7.48;69.25;103558.38;10418524;28;20029;-76
2022/03/17 18:16:51;;;;;;;14.02;5.40;;;;;;;7.34;70.02;103578.22;10416277;28;20068;-77
2022/03/17 18:21:52;;;;;;;14.15;6.70;;;;;;;7.25;70.17;103587.00;10417134;28;20029;-76
2022/03/17 18:26:56;;;;;;;18.02;5.45;;;;;;;7.12;70.23;103585.19;10416428;28;20083;-76
2022/03/17 18:31:58;;;;;;;6.22;4.10;;;;;;;7.01;70.83;103605.75;10416755;28;20029;-75
2022/03/17 18:36:58;;;;;;;12.00;4.93;;;;;;;6.94;71.51;103608.03;10416309;28;20420;-76
2022/03/17 18:41:58;;;;;;;12.63;4.68;;;;;;;6.96;73.60;103616.88;10419418;28;20115;-76
2022/03/17 18:46:59;;;;;;;10.63;5.68;;;;;;;6.96;72.57;103620.41;10417810;28;20120;-76
2022/03/17 18:51:59;;;;;;;13.25;5.47;;;;;;;6.93;73.68;103633.25;10419899;28;20040;-76
2022/03/17 18:57:00;;;;;;;9.68;4.82;;;;;;;6.90;74.35;103625.38;10423370;28;20069;-76
2022/03/17 19:02:00;;;;;;;24.95;5.10;;;;;;;6.83;74.47;103635.72;10423593;28;20087;-76
2022/03/17 19:07:00;;;;;;;16.48;5.40;;;;;;;6.79;74.46;103646.78;10423539;28;20037;-76
2022/03/17 19:12:01;;;;;;;8.13;4.82;;;;;;;6.70;75.04;103646.47;10423176;28;20030;-75
2022/03/17 19:17:08;;;;;;;14.75;4.68;;;;;;;6.66;75.73;103654.84;10423003;28;20048;-76
2022/03/17 19:22:09;;;;;;;;;;;;;;;6.57;75.41;103658.16;10422137;28;20033;-76
2022/03/17 19:27:10;;;;;;;10.35;6.35;;;;;;;6.46;75.57;103664.28;10422037;28;19917;-76
2022/03/17 19:32:10;;;;;;;24.30;6.53;;;;;;;6.40;75.31;103662.84;10422159;28;20045;-76
2022/03/17 19:37:11;;;;;;;14.57;5.43;;;;;;;6.33;77.14;103677.69;10425856;28;20029;-75
2022/03/17 19:42:11;;;;;;;14.73;5.53;;;;;;;6.29;77.53;103681.53;10423023;28;20099;-75
2022/03/17 19:47:12;;;;;;;21.02;4.85;;;;;;;6.27;79.52;103689.69;10420412;28;20432;-76
2022/03/17 19:52:13;;;;;;;19.10;4.85;;;;;;;6.24;78.63;103692.59;10423029;28;20083;-76
2022/03/17 19:57:13;;;;;;;11.98;3.97;;;;;;;6.18;78.92;103698.38;10424854;28;20095;-77
2022/03/17 20:02:14;;;;;;;10.95;4.90;;;;;;;6.08;77.57;103701.78;10421986;28;20036;-75
2022/03/17 20:07:14;;;;;;;9.98;4.70;;;;;;;5.90;77.18;103712.69;10421137;28;20079;-76
2022/03/17 20:17:34;;;;;;;17.52;6.13;;;;;;;5.85;78.18;103724.75;10420139;28;20477;-74
2022/03/17 20:22:34;;;;;;;12.80;6.35;;;;;;;5.80;77.82;103733.06;10420432;28;20034;-76
2022/03/17 20:27:34;;;;;;;22.15;6.30;;;;;;;5.70;77.68;103732.78;10420442;28;20030;-76
2022/03/17 20:32:35;;;;;;;17.23;6.20;;;;;;;5.51;77.12;103733.06;10420301;28;20045;-75
2022/03/17 20:37:35;;;;;;;14.15;6.47;;;;;;;5.40;76.59;103732.03;10420221;28;20033;-76
2022/03/17 20:42:36;;;;;;;13.52;6.28;;;;;;;5.29;76.45;103738.88;10419636;28;20081;-74
2022/03/17 20:47:36;;;;;;;12.18;5.43;;;;;;;5.28;76.95;103739.84;10418434;28;20037;-73
2022/03/17 20:52:36;;;;;;;10.73;6.90;;;;;;;5.33;77.62;103751.22;10417872;28;20473;-73
2022/03/17 20:57:40;;;;;;;15.60;5.68;;;;;;;5.33;77.72;103756.59;10418818;28;20065;-77
2022/03/17 21:02:40;;;;;;;12.43;6.25;;;;;;;5.29;77.97;103765.75;10417433;28;20033;-75
2022/03/17 21:07:44;;;;;;;9.48;5.45;;;;;;;5.25;78.62;103766.91;10400722;28;20124;-75
2022/03/17 21:12:44;;;;;;;15.20;6.72;;;;;;;5.24;79.08;103773.25;10416148;28;20121;-75
2022/03/17 21:17:44;;;;;;;14.35;7.53;;;;;;;5.25;82.50;103779.47;10418917;28;20037;-75
2022/03/17 21:22:45;;;;;;;15.35;7.18;;;;;;;5.28;81.15;103782.00;10418251;28;20384;-74
2022/03/17 21:27:45;;;;;;;12.35;7.68;;;;;;;5.22;80.18;103791.28;10418907;28;20034;-75
2022/03/17 21:32:46;;;;;;;22.27;8.75;;;;;;;5.19;80.13;103794.13;10417018;28;20087;-73
2022/03/17 21:37:47;;;;;;;15.65;6.55;;;;;;;5.16;79.98;103791.63;10417849;28;20079;-75
2022/03/17 21:42:47;;;;;;;14.48;7.13;;;;;;;5.12;79.76;103803.53;10417847;28;20076;-75
2022/03/17 21:47:47;;;;;;;6.50;5.45;;;;;;;5.04;79.16;103797.72;10418554;28;20033;-75
2022/03/17 21:52:48;;;;;;;10.77;6.53;;;;;;;4.93;78.92;103805.56;10415864;28;20030;-75
2022/03/17 21:57:48;;;;;;;26.77;7.03;;;;;;;4.86;78.42;103816.66;10417413;28;20038;-75
2022/03/17 22:02:49;;;;;;;6.80;5.28;;;;;;;4.77;78.91;103824.38;10415107;28;20036;-74
2022/03/17 22:07:53;;;;;;;15.43;5.72;;;;;;;4.68;78.79;103822.22;10416418;28;20473;-74
2022/03/17 22:12:53;;;;;;;19.15;8.02;;;;;;;4.68;78.50;103824.91;10415668;28;20030;-75
2022/03/17 22:17:54;;;;;;;16.42;6.05;;;;;;;4.69;78.88;103823.94;10416870;28;20033;-75
2022/03/17 22:22:54;;;;;;;14.80;6.28;;;;;;;4.70;80.08;103837.28;10414791;28;20036;-75
2022/03/17 22:27:55;;;;;;;18.25;5.90;;;;;;;4.76;80.64;103850.34;10398356;28;20041;-75
2022/03/17 22:32:56;;;;;;;11.35;5.53;;;;;;;4.80;79.89;103851.91;10415860;28;20361;-76
2022/03/17 22:37:57;;;;;;;12.43;5.45;;;;;;;4.81;82.59;103856.31;10400557;28;20037;-75
2022/03/17 22:42:57;;;;;;;7.88;5.75;;;;;;;4.92;80.86;103857.53;10416379;28;20426;-76
2022/03/17 22:47:58;;;;;;;9.07;5.65;;;;;;;4.79;80.26;103863.59;10415221;28;20030;-75
2022/03/17 22:52:59;;;;;;;17.27;4.60;;;;;;;4.73;79.87;103869.31;10415524;28;20441;-74
2022/03/17 22:57:59;;;;;;;11.77;5.47;;;;;;;4.68;80.03;103871.38;10413584;28;20030;-74
2022/03/17 23:03:00;;;;;;;12.70;4.95;;;;;;;4.71;79.94;103871.22;10398031;28;20050;-75
2022/03/17 23:08:05;;;;;;;21.35;5.47;;;;;;;4.68;79.86;103879.44;10415161;28;20037;-75
2022/03/17 23:13:07;;;;;;;21.63;5.65;;;;;;;4.77;80.06;103888.81;10413229;28;20491;-75
2022/03/17 23:18:07;;;;;;;18.13;5.32;;;;;;;4.76;79.80;103884.41;10414467;28;20086;-75
2022/03/17 23:23:08;;;;;;;7.50;4.00;;;;;;;4.69;79.74;103894.63;10397410;28;20496;-75
2022/03/17 23:28:09;;;;;;;8.10;4.43;;;;;;;4.63;79.73;103916.44;10414158;28;20045;-75
2022/03/17 23:33:09;;;;;;;6.80;4.78;;;;;;;4.52;79.72;103916.13;10413364;28;20037;-75
2022/03/17 23:38:09;;;;;;;11.82;4.78;;;;;;;4.47;80.11;103926.22;10418658;28;20034;-74